Pittsburg, Kentucky
Current Conditions -  °F | °C
As of 9:53 PM on Friday 28 Nov 2014 (Local Time) from KLOZ Reporting Station
Clear Clear  
Wind Chill: 30°   Ceiling: Unl
Heat Index: 34°   Visibility: 10mi
Dew Point: 17°   Wind: 5mph
Humidity: 50%   Direction: 170°S
Pressure: 30.14"   Gusts: NA
Location:  37.16°N, 84.1°W
Report Text: KLOZ 290253Z AUTO 17004KT 10SM CLR 01/M08 A3014 RMK AO2 SLP217 T00111083 58023
Loading
Personal Weather Stations






























Interactive Weather Map New forecast layout! Learn more

10-Day Weather Forecast

Advertisements
Track Severe Weather on mobile